Time;durP1;ratioP1;P1;durP2;ratioP2;P2;SDS_P1;SDS_P2;PMS_P1;PMS_P2;Temp;Humidity;BMP_temperature;BMP_pressure;BME280_temperature;BME280_humidity;BME280_pressure;Samples;Min_cycle;Max_cycle;Signal;HPM_P1;HPM_P2
2022/10/02 00:00:07;;;;;;;25.02;3.30;;;;;;;11.78;100.00;101206.06;4971704;28;20049;-79
2022/10/02 00:02:42;;;;;;;20.00;2.97;;;;;;;11.75;100.00;101208.97;4992505;28;20526;-78
2022/10/02 00:05:16;;;;;;;25.35;3.63;;;;;;;11.80;100.00;101203.31;4997138;28;20156;-79
2022/10/02 00:07:50;;;;;;;17.80;3.03;;;;;;;11.80;100.00;101209.31;4992070;28;20026;-78
2022/10/02 00:10:26;;;;;;;21.80;3.38;;;;;;;11.83;100.00;101203.81;4993350;28;20661;-77
2022/10/02 00:13:06;;;;;;;18.35;3.05;;;;;;;11.93;100.00;101210.72;4988331;28;20108;-78
2022/10/02 00:15:34;;;;;;;29.45;3.53;;;;;;;12.16;100.00;101205.78;4980943;28;20113;-76
2022/10/02 00:18:10;;;;;;;23.52;3.00;;;;;;;12.03;100.00;101208.81;4994256;28;20046;-79
2022/10/02 00:20:58;;;;;;;27.02;3.92;;;;;;;12.07;100.00;101210.97;4970907;28;20725;-78
2022/10/02 00:23:40;;;;;;;22.30;2.50;;;;;;;12.10;100.00;101204.63;4985316;28;20042;-77
2022/10/02 00:26:17;;;;;;;21.77;3.47;;;;;;;12.20;100.00;101214.91;4989376;28;20254;-77
2022/10/02 00:29:01;;;;;;;23.75;3.65;;;;;;;12.10;100.00;101220.22;4983423;28;20042;-82
2022/10/02 00:31:51;;;;;;;18.65;3.58;;;;;;;12.16;100.00;101222.19;4985605;28;20026;-79
2022/10/02 00:34:35;;;;;;;28.58;3.40;;;;;;;12.35;100.00;101230.72;4986868;28;20037;-77
2022/10/02 00:37:45;;;;;;;28.27;3.50;;;;;;;12.35;100.00;101234.13;4974453;28;20899;-76
2022/10/02 00:40:32;;;;;;;23.08;3.28;;;;;;;12.26;100.00;101230.72;5012582;28;20029;-80
2022/10/02 00:43:15;;;;;;;27.98;3.70;;;;;;;12.38;100.00;101223.44;4975386;28;20042;-77
2022/10/02 00:45:49;;;;;;;;;;;;;;;12.40;100.00;101231.06;4988307;28;20042;-80
2022/10/02 00:48:27;;;;;;;26.20;3.55;;;;;;;12.40;100.00;101224.09;4986832;28;19913;-78
2022/10/02 00:51:24;;;;;;;29.30;3.05;;;;;;;12.45;100.00;101229.63;5004950;28;20065;-78
2022/10/02 00:54:08;;;;;;;33.47;5.32;;;;;;;12.54;100.00;101221.84;4992149;28;20171;-78
2022/10/02 00:56:56;;;;;;;21.35;3.67;;;;;;;12.48;100.00;101230.28;4993331;28;20057;-78
2022/10/02 00:59:29;;;;;;;31.30;4.18;;;;;;;12.58;100.00;101224.00;5004476;28;20038;-79
2022/10/02 01:02:00;;;;;;;;;;;;;;;12.59;100.00;101228.19;4972913;28;20116;-78
2022/10/02 01:04:32;;;;;;;33.75;4.15;;;;;;;12.59;100.00;101227.41;4987730;28;19913;-78
2022/10/02 01:06:58;;;;;;;30.98;4.28;;;;;;;12.63;100.00;101228.69;4973811;28;20045;-79
2022/10/02 01:09:24;;;;;;;33.78;4.05;;;;;;;12.69;100.00;101233.25;5003075;28;20040;-77
2022/10/02 01:11:51;;;;;;;23.33;3.70;;;;;;;12.60;100.00;101240.25;5004339;28;20030;-79
2022/10/02 01:14:16;;;;;;;28.48;4.70;;;;;;;12.57;100.00;101235.34;4988098;28;20040;-76
2022/10/02 01:16:43;;;;;;;30.02;3.88;;;;;;;12.62;100.00;101240.06;4967383;28;20034;-78
2022/10/02 01:19:27;;;;;;;29.67;3.67;;;;;;;12.58;100.00;101228.34;4971591;28;20033;-80
2022/10/02 01:22:03;;;;;;;32.67;3.80;;;;;;;12.66;100.00;101228.41;4999954;28;20112;-79
2022/10/02 01:24:38;;;;;;;31.02;3.67;;;;;;;12.72;100.00;101226.94;4984064;28;20077;-81
2022/10/02 01:27:04;;;;;;;26.05;3.92;;;;;;;12.61;100.00;101228.84;4968547;28;20064;-77
2022/10/02 01:29:29;;;;;;;32.35;3.80;;;;;;;12.65;100.00;101226.75;5005640;28;20660;-77
2022/10/02 01:31:55;;;;;;;21.88;3.33;;;;;;;12.55;100.00;101233.91;4999390;28;20407;-80
2022/10/02 01:34:22;;;;;;;33.95;5.25;;;;;;;12.68;100.00;101233.41;5002914;28;20041;-77
2022/10/02 01:36:48;;;;;;;24.25;2.95;;;;;;;12.78;100.00;101234.91;5003276;28;20030;-76
2022/10/02 01:39:14;;;;;;;28.92;3.83;;;;;;;12.73;100.00;101234.56;5005414;28;20460;-79
2022/10/02 01:41:43;;;;;;;31.05;3.90;;;;;;;12.78;100.00;101241.91;4969201;28;20022;-78
2022/10/02 01:44:09;;;;;;;27.80;4.30;;;;;;;12.93;100.00;101227.28;4993974;28;20033;-77
2022/10/02 01:46:57;;;;;;;17.75;3.80;;;;;;;12.80;100.00;101243.38;4994479;28;20034;-79
2022/10/02 01:49:59;;;;;;;19.52;3.72;;;;;;;12.74;100.00;101231.00;4989827;28;20565;-77
2022/10/02 01:52:32;;;;;;;27.48;3.63;;;;;;;12.83;100.00;101231.84;5003500;28;20129;-76
2022/10/02 01:55:00;;;;;;;33.95;4.75;;;;;;;12.79;100.00;101233.94;4988277;28;20046;-78
2022/10/02 01:57:53;;;;;;;36.75;3.45;;;;;;;12.78;100.00;101234.91;5007324;28;20030;-79
2022/10/02 02:00:21;;;;;;;36.30;5.35;;;;;;;12.68;100.00;101238.63;4964956;28;20477;-77
2022/10/02 02:02:52;;;;;;;37.78;3.80;;;;;;;12.81;100.00;101234.59;4986898;28;20529;-79
2022/10/02 02:05:54;;;;;;;38.58;4.50;;;;;;;12.86;100.00;101231.50;5005819;28;20072;-79
2022/10/02 02:08:59;;;;;;;37.08;4.97;;;;;;;12.82;100.00;101227.59;5002298;28;20034;-77
2022/10/02 02:11:24;;;;;;;32.17;3.85;;;;;;;12.92;100.00;101217.03;4946924;28;20482;-77
2022/10/02 02:14:05;;;;;;;33.28;4.22;;;;;;;12.81;100.00;101218.97;5002807;28;20399;-78
2022/10/02 02:16:44;;;;;;;30.88;4.65;;;;;;;12.80;100.00;101225.16;5003439;28;20034;-78
2022/10/02 02:19:22;;;;;;;33.47;5.57;;;;;;;12.86;100.00;101215.88;5003159;28;20446;-79
2022/10/02 02:21:57;;;;;;;29.08;3.90;;;;;;;12.77;100.00;101222.88;5005448;28;20037;-78
2022/10/02 02:24:37;;;;;;;37.83;3.92;;;;;;;12.84;100.00;101212.63;4988878;28;20145;-77
2022/10/02 02:27:04;;;;;;;35.05;4.38;;;;;;;12.85;100.00;101215.09;4986649;28;20049;-79
2022/10/02 02:29:34;;;;;;;26.90;3.65;;;;;;;12.85;100.00;101214.28;4969228;28;21938;-76
2022/10/02 02:32:03;;;;;;;38.03;3.65;;;;;;;12.90;100.00;101222.41;4983947;28;20038;-77
2022/10/02 02:34:37;;;;;;;30.85;3.50;;;;;;;12.88;100.00;101224.34;4972215;28;20104;-79
2022/10/02 02:37:15;;;;;;;30.38;3.63;;;;;;;12.87;100.00;101227.13;4970255;28;20041;-78
2022/10/02 02:39:58;;;;;;;29.42;3.38;;;;;;;12.80;100.00;101232.16;4976016;28;20048;-80
2022/10/02 02:42:29;;;;;;;29.80;4.47;;;;;;;12.84;100.00;101234.25;4991042;28;20034;-79
2022/10/02 02:45:04;;;;;;;30.63;3.95;;;;;;;12.80;100.00;101232.16;4992691;28;20038;-80
2022/10/02 02:47:44;;;;;;;36.03;4.13;;;;;;;12.97;100.00;101233.00;4973556;28;20037;-76
2022/10/02 02:50:17;;;;;;;28.42;3.72;;;;;;;12.88;100.00;101232.16;4989368;28;20789;-78
2022/10/02 02:53:08;;;;;;;30.35;5.10;;;;;;;12.80;100.00;101232.97;4990661;28;20044;-79
2022/10/02 02:55:36;;;;;;;37.28;4.18;;;;;;;12.96;100.00;101237.41;4979723;28;20038;-78
2022/10/02 02:58:09;;;;;;;26.58;4.00;;;;;;;12.92;100.00;101236.09;4977764;28;20038;-77
2022/10/02 03:00:35;;;;;;;29.70;5.60;;;;;;;13.01;100.00;101239.50;4976369;28;20025;-79
2022/10/02 03:03:18;;;;;;;37.70;3.97;;;;;;;13.15;100.00;101238.06;4978073;28;20105;-77
2022/10/02 03:06:01;;;;;;;30.92;4.03;;;;;;;13.21;100.00;101237.41;4999281;28;20038;-80
2022/10/02 03:08:30;;;;;;;;;;;;;;;13.19;100.00;101239.38;4984671;28;20038;-76
2022/10/02 03:11:23;;;;;;;31.20;3.25;;;;;;;13.28;100.00;101251.41;4996719;28;19956;-77
2022/10/02 03:14:26;;;;;;;39.20;5.97;;;;;;;13.24;100.00;101244.88;4989944;28;20058;-78
2022/10/02 03:17:16;;;;;;;28.37;3.70;;;;;;;13.09;100.00;101236.09;4988359;28;20799;-80
2022/10/02 03:19:45;;;;;;;20.90;3.38;;;;;;;12.99;100.00;101247.47;4990638;28;20473;-78
2022/10/02 03:22:34;;;;;;;16.30;2.15;;;;;;;12.94;100.00;101256.72;5005830;28;20072;-80
2022/10/02 03:25:22;;;;;;;30.33;3.80;;;;;;;12.92;100.00;101243.06;4974004;28;20129;-81
2022/10/02 03:28:14;;;;;;;24.75;3.95;;;;;;;12.91;100.00;101244.84;4988180;28;20046;-79
2022/10/02 03:30:42;;;;;;;34.30;4.03;;;;;;;12.88;100.00;101257.38;4975234;28;20487;-77
2022/10/02 03:33:09;;;;;;;36.83;4.35;;;;;;;12.88;100.00;101257.38;4973128;28;20052;-79
2022/10/02 03:35:36;;;;;;;36.17;4.85;;;;;;;12.87;100.00;101260.97;4989644;28;20030;-77
2022/10/02 03:38:05;;;;;;;24.05;4.38;;;;;;;12.82;100.00;101258.81;4999506;28;21774;-77
2022/10/02 03:40:30;;;;;;;21.27;3.45;;;;;;;12.78;100.00;101258.31;4980280;28;20034;-76
2022/10/02 03:42:57;;;;;;;21.67;3.63;;;;;;;12.78;100.00;101252.31;5001742;28;20034;-76
2022/10/02 03:45:27;;;;;;;26.55;3.38;;;;;;;12.81;100.00;101259.81;4987120;28;20041;-76
2022/10/02 03:47:52;;;;;;;24.70;3.42;;;;;;;12.75;100.00;101266.47;4972885;28;20699;-77
2022/10/02 03:50:18;;;;;;;30.25;4.40;;;;;;;12.73;100.00;101249.38;5000026;28;20039;-79
2022/10/02 03:52:46;;;;;;;32.13;3.40;;;;;;;12.78;100.00;101257.53;4976001;28;20044;-78
2022/10/02 03:55:17;;;;;;;18.00;2.70;;;;;;;12.75;100.00;101242.22;4973695;28;20041;-76
2022/10/02 03:57:44;;;;;;;25.77;3.30;;;;;;;12.70;100.00;101240.09;4972210;28;20037;-77
2022/10/02 04:00:17;;;;;;;23.75;2.97;;;;;;;12.69;100.00;101241.06;4986615;28;20060;-77
2022/10/02 04:02:47;;;;;;;;;;;;;;;12.69;100.00;101241.06;4958606;28;20031;-76
2022/10/02 04:05:24;;;;;;;21.23;2.55;;;;;;;12.63;100.00;101250.31;4979278;28;19917;-76
2022/10/02 04:07:55;;;;;;;20.50;2.95;;;;;;;12.74;100.00;101248.41;4988480;28;20037;-76
2022/10/02 04:10:31;;;;;;;21.02;4.63;;;;;;;12.70;100.00;101257.50;4987970;28;20495;-76
2022/10/02 04:13:06;;;;;;;19.80;3.30;;;;;;;12.70;100.00;101250.50;4974998;28;20057;-76
2022/10/02 04:15:57;;;;;;;19.75;2.22;;;;;;;12.72;100.00;101250.34;5002858;28;20101;-76
2022/10/02 04:18:35;;;;;;;23.42;2.75;;;;;;;12.74;100.00;101257.03;4968320;28;20048;-76
2022/10/02 04:21:25;;;;;;;23.00;2.78;;;;;;;12.71;100.00;101253.91;5002908;28;20105;-76
2022/10/02 04:24:01;;;;;;;17.30;2.58;;;;;;;12.69;100.00;101267.09;4979584;28;20053;-76
2022/10/02 04:26:33;;;;;;;22.98;3.08;;;;;;;12.65;100.00;101260.56;5018485;28;20034;-76
2022/10/02 04:29:22;;;;;;;25.00;3.38;;;;;;;12.69;100.00;101261.06;5003124;28;20116;-75
2022/10/02 04:31:52;;;;;;;15.65;2.92;;;;;;;12.66;100.00;101259.63;4986963;28;20037;-76
2022/10/02 04:34:18;;;;;;;22.33;3.47;;;;;;;12.73;100.00;101267.59;4981932;28;20041;-75
2022/10/02 04:37:01;;;;;;;26.35;3.33;;;;;;;12.82;100.00;101266.63;4982528;28;20042;-75
2022/10/02 04:39:53;;;;;;;19.55;2.85;;;;;;;12.75;100.00;101274.28;4973184;28;20400;-76
2022/10/02 04:42:38;;;;;;;14.93;2.90;;;;;;;12.70;100.00;101273.13;5001324;28;20038;-75
2022/10/02 04:45:19;;;;;;;27.40;3.13;;;;;;;12.74;100.00;101270.03;4997684;28;20045;-75
2022/10/02 04:48:06;;;;;;;24.80;3.33;;;;;;;12.76;100.00;101272.47;4988038;28;20125;-75
2022/10/02 04:50:48;;;;;;;23.25;3.42;;;;;;;12.87;100.00;101266.97;4989693;28;20038;-76
2022/10/02 04:53:28;;;;;;;23.02;3.05;;;;;;;12.75;100.00;101291.66;5002331;28;20113;-75
2022/10/02 04:56:21;;;;;;;17.95;3.10;;;;;;;12.69;100.00;101280.09;4984605;28;20121;-75
2022/10/02 04:59:01;;;;;;;18.52;3.47;;;;;;;12.68;100.00;101267.22;5003082;28;20479;-75
2022/10/02 05:01:36;;;;;;;23.10;3.80;;;;;;;12.70;100.00;101292.16;5003890;28;20033;-76
2022/10/02 05:04:24;;;;;;;24.40;4.65;;;;;;;12.63;100.00;101286.75;5006468;28;20092;-79
2022/10/02 05:07:02;;;;;;;22.30;3.92;;;;;;;12.60;100.00;101288.84;4970268;28;20046;-81
2022/10/02 05:09:39;;;;;;;13.85;3.30;;;;;;;12.63;100.00;101288.53;4972530;28;20030;-80
2022/10/02 05:12:10;;;;;;;24.27;3.47;;;;;;;12.69;100.00;101271.47;4991362;28;20116;-80
2022/10/02 05:15:02;;;;;;;18.58;2.70;;;;;;;12.66;100.00;101283.03;4989792;28;20583;-79
2022/10/02 05:17:43;;;;;;;19.13;3.25;;;;;;;12.68;100.00;101294.09;4988364;28;20174;-79
2022/10/02 05:20:50;;;;;;;18.30;2.90;;;;;;;12.67;100.00;101295.03;4994970;28;20739;-79
2022/10/02 05:23:56;;;;;;;28.30;3.53;;;;;;;12.81;100.00;101314.47;4993796;28;20537;-78
2022/10/02 05:26:53;;;;;;;18.20;4.05;;;;;;;12.76;100.00;101306.31;4974975;28;20029;-78
2022/10/02 05:29:40;;;;;;;25.58;4.13;;;;;;;12.76;100.00;101299.31;4986020;28;20029;-80
2022/10/02 05:32:30;;;;;;;23.48;3.63;;;;;;;12.74;100.00;101316.06;4972558;28;20056;-78
2022/10/02 05:35:15;;;;;;;16.30;4.65;;;;;;;12.74;100.00;101318.66;4972930;28;20485;-77
2022/10/02 05:38:09;;;;;;;24.05;4.45;;;;;;;12.74;100.00;101308.25;5006012;28;20033;-77
2022/10/02 05:40:56;;;;;;;20.92;3.40;;;;;;;12.85;100.00;101313.19;4968898;28;20029;-77
2022/10/02 05:43:41;;;;;;;34.45;4.13;;;;;;;12.85;100.00;101307.97;4987882;28;20057;-79
2022/10/02 05:46:22;;;;;;;21.92;3.35;;;;;;;12.88;100.00;101306.81;5004009;28;20048;-76
2022/10/02 05:49:01;;;;;;;20.30;4.00;;;;;;;12.82;100.00;101303.06;4988095;28;20089;-79
2022/10/02 05:51:46;;;;;;;22.80;3.90;;;;;;;12.88;100.00;101312.84;4988834;28;20037;-77
2022/10/02 05:54:26;;;;;;;23.88;3.97;;;;;;;12.83;100.00;101310.72;5003533;28;21296;-78
2022/10/02 05:56:59;;;;;;;15.95;4.03;;;;;;;12.85;100.00;101316.59;4988922;28;20058;-77
2022/10/02 05:59:41;;;;;;;19.60;4.38;;;;;;;12.91;100.00;101315.13;4989325;28;20030;-76
2022/10/02 06:02:27;;;;;;;18.23;3.38;;;;;;;12.89;100.00;101319.69;5003782;28;20038;-76
2022/10/02 06:05:05;;;;;;;19.83;3.75;;;;;;;12.87;100.00;101331.25;5000116;28;20065;-77
2022/10/02 06:07:32;;;;;;;23.65;3.63;;;;;;;12.89;100.00;101344.91;4985827;28;20034;-76
2022/10/02 06:10:14;;;;;;;17.30;3.45;;;;;;;12.93;100.00;101331.41;5005744;28;20033;-77
2022/10/02 06:12:58;;;;;;;25.88;4.10;;;;;;;13.11;100.00;101327.84;4986086;28;20484;-76
2022/10/02 06:15:35;;;;;;;24.98;5.45;;;;;;;12.99;100.00;101327.34;4990581;28;20945;-76
2022/10/02 06:18:12;;;;;;;20.95;3.63;;;;;;;13.04;100.00;101332.91;5007499;28;20041;-76
2022/10/02 06:20:47;;;;;;;20.55;4.63;;;;;;;13.13;100.00;101336.31;4987593;28;20041;-78
2022/10/02 06:23:23;;;;;;;26.63;4.22;;;;;;;13.05;100.00;101335.34;4991025;28;20116;-75
2022/10/02 06:25:52;;;;;;;22.52;4.13;;;;;;;13.08;100.00;101328.19;5009836;28;20034;-75
2022/10/02 06:28:40;;;;;;;23.25;4.63;;;;;;;13.08;100.00;101331.59;4986999;28;20145;-75
2022/10/02 06:31:36;;;;;;;21.90;8.27;;;;;;;13.08;100.00;101338.63;4986321;28;20033;-75
2022/10/02 06:34:01;;;;;;;22.75;12.32;;;;;;;13.11;100.00;101344.31;5003893;28;20557;-75
2022/10/02 06:36:42;;;;;;;26.52;6.03;;;;;;;13.08;100.00;101343.81;4990120;28;20037;-75
2022/10/02 06:39:25;;;;;;;18.33;3.63;;;;;;;13.11;100.00;101348.69;5003755;28;20038;-76
2022/10/02 06:42:08;;;;;;;17.42;4.32;;;;;;;13.05;100.00;101350.97;5002600;28;20030;-76
2022/10/02 06:44:46;;;;;;;22.75;4.72;;;;;;;13.17;100.00;101348.88;4986743;28;20084;-75
2022/10/02 06:47:47;;;;;;;27.40;8.90;;;;;;;13.21;100.00;101352.78;5005585;28;20044;-75
2022/10/02 06:50:18;;;;;;;16.23;4.35;;;;;;;13.19;100.00;101356.53;4970706;28;20043;-75
2022/10/02 06:52:49;;;;;;;21.00;5.88;;;;;;;13.18;100.00;101357.50;4988558;28;20084;-75
2022/10/02 06:55:50;;;;;;;17.55;4.38;;;;;;;13.21;100.00;101360.59;4989791;28;20121;-75
2022/10/02 06:58:28;;;;;;;24.13;5.97;;;;;;;13.18;100.00;101368.72;4990386;28;20072;-75
2022/10/02 07:01:23;;;;;;;24.38;4.63;;;;;;;13.23;100.00;101371.66;4973135;28;20033;-75
2022/10/02 07:04:13;;;;;;;27.15;8.55;;;;;;;13.28;100.00;101358.19;5003605;28;20047;-75
2022/10/02 07:06:45;;;;;;;19.70;4.25;;;;;;;13.28;100.00;101358.19;4988356;28;20029;-75
2022/10/02 07:09:16;;;;;;;21.73;4.30;;;;;;;13.29;100.00;101357.19;4993570;28;20048;-74
2022/10/02 07:11:48;;;;;;;17.08;4.57;;;;;;;13.22;100.00;101357.03;5004221;28;20033;-75
2022/10/02 07:14:34;;;;;;;23.73;4.05;;;;;;;13.29;100.00;101364.19;5004324;28;20045;-75
2022/10/02 07:17:15;;;;;;;18.00;4.22;;;;;;;13.20;100.00;101369.41;5008291;28;20472;-75
2022/10/02 07:20:14;;;;;;;22.80;6.03;;;;;;;13.34;100.00;101367.19;4992464;28;20490;-75
2022/10/02 07:22:48;;;;;;;20.17;5.50;;;;;;;13.27;100.00;101374.78;4892774;28;20045;-75
2022/10/02 07:25:32;;;;;;;18.98;4.97;;;;;;;13.31;100.00;101381.31;4983550;28;20033;-75
2022/10/02 07:28:16;;;;;;;18.52;4.22;;;;;;;13.36;100.00;101393.88;4987526;28;20080;-75
2022/10/02 07:31:18;;;;;;;14.70;3.80;;;;;;;13.42;100.00;101394.03;5001923;28;20084;-75
2022/10/02 07:33:57;;;;;;;16.77;4.25;;;;;;;13.30;100.00;101387.53;4974011;28;20114;-75
2022/10/02 07:36:55;;;;;;;21.23;4.50;;;;;;;13.25;100.00;101390.56;4987186;28;20466;-74
2022/10/02 07:40:01;;;;;;;22.05;4.72;;;;;;;13.44;100.00;101392.09;4990129;28;20044;-75
2022/10/02 07:42:53;;;;;;;19.10;3.67;;;;;;;13.41;100.00;101392.44;4968641;28;20303;-75
2022/10/02 07:45:38;;;;;;;19.77;5.28;;;;;;;13.46;100.00;101389.31;4982197;28;20030;-75
2022/10/02 07:48:22;;;;;;;19.73;6.65;;;;;;;13.47;100.00;101396.19;4969891;28;20266;-75
2022/10/02 07:50:57;;;;;;;14.98;3.70;;;;;;;13.52;100.00;101393.88;4970249;28;20110;-75
2022/10/02 07:53:27;;;;;;;18.58;4.10;;;;;;;13.51;100.00;101397.47;4987365;28;20618;-75
2022/10/02 07:55:54;;;;;;;21.55;4.70;;;;;;;13.38;100.00;101405.75;4986980;28;20030;-75
2022/10/02 07:58:38;;;;;;;10.50;3.75;;;;;;;13.40;100.00;101401.19;4986973;28;20995;-76
2022/10/02 08:01:11;;;;;;;14.55;3.45;;;;;;;13.49;100.00;101412.47;4985861;28;20041;-75
2022/10/02 08:04:02;;;;;;;13.50;4.28;;;;;;;13.59;100.00;101417.53;4985080;28;20037;-76
2022/10/02 08:06:28;;;;;;;13.73;3.17;;;;;;;13.61;100.00;101410.34;4986954;28;20042;-75
2022/10/02 08:09:18;;;;;;;16.02;3.30;;;;;;;13.57;100.00;101415.06;4994108;28;20041;-76
2022/10/02 08:11:52;;;;;;;20.30;3.95;;;;;;;13.58;100.00;101419.31;4984199;28;20035;-76
2022/10/02 08:14:38;;;;;;;18.23;4.38;;;;;;;13.60;100.00;101419.97;4986784;28;20053;-75
2022/10/02 08:17:22;;;;;;;17.15;3.40;;;;;;;13.58;100.00;101421.94;4989224;28;20077;-76
2022/10/02 08:19:51;;;;;;;15.43;3.67;;;;;;;13.75;100.00;101427.97;5004502;28;20021;-77
2022/10/02 08:22:25;;;;;;;17.55;3.17;;;;;;;13.69;100.00;101436.41;4984920;28;20033;-76
2022/10/02 08:25:04;;;;;;;12.13;3.45;;;;;;;13.54;100.00;101441.47;4980631;28;20018;-77
2022/10/02 08:27:59;;;;;;;14.55;3.03;;;;;;;13.55;100.00;101440.47;5003538;28;20237;-76
2022/10/02 08:30:28;;;;;;;17.67;3.75;;;;;;;13.56;100.00;101439.50;4984087;28;20034;-77
2022/10/02 08:32:54;;;;;;;11.40;3.60;;;;;;;13.51;100.00;101444.38;4985122;28;20037;-76
2022/10/02 08:36:23;;;;;;;20.48;3.58;;;;;;;13.53;100.00;101445.03;4983999;28;20034;-76
2022/10/02 08:39:57;;;;;;;18.65;4.85;;;;;;;13.65;100.00;101448.13;4930296;28;20031;-77
2022/10/02 08:43:30;;;;;;;18.20;3.50;;;;;;;13.58;100.00;101452.34;4941064;29;20083;-76
2022/10/02 08:46:31;;;;;;;14.18;3.40;;;;;;;13.51;100.00;101461.81;4947455;29;20039;-76
2022/10/02 08:49:37;;;;;;;17.23;4.13;;;;;;;13.45;100.00;101465.88;4955947;28;20173;-75
2022/10/02 08:52:08;;;;;;;11.85;3.10;;;;;;;13.51;100.00;101470.44;4985404;28;20466;-75
2022/10/02 08:54:52;;;;;;;13.63;3.30;;;;;;;13.49;100.00;101469.78;4975059;28;20076;-75
2022/10/02 08:57:41;;;;;;;11.65;3.03;;;;;;;13.49;100.00;101472.38;5004822;28;20069;-76
2022/10/02 09:00:40;;;;;;;14.00;3.05;;;;;;;13.47;100.00;101474.34;5007526;28;20030;-75
2022/10/02 09:03:17;;;;;;;13.60;3.30;;;;;;;13.40;100.00;101458.50;5005207;28;20049;-75
2022/10/02 09:06:04;;;;;;;11.82;2.60;;;;;;;13.40;100.00;101463.72;4980065;28;20034;-75
2022/10/02 09:08:43;;;;;;;16.10;3.50;;;;;;;13.53;100.00;101467.66;4985868;28;20041;-75
2022/10/02 09:11:35;;;;;;;10.50;3.17;;;;;;;13.60;100.00;101476.50;5006406;28;20033;-76
2022/10/02 09:14:37;;;;;;;9.57;3.10;;;;;;;13.70;100.00;101476.34;4960597;28;20049;-75
2022/10/02 09:17:06;;;;;;;17.35;3.47;;;;;;;13.91;100.00;101478.50;4981529;28;20048;-76
2022/10/02 09:19:56;;;;;;;19.60;2.88;;;;;;;14.04;100.00;101473.59;5003052;28;20042;-75
2022/10/02 09:22:47;;;;;;;21.35;3.83;;;;;;;14.15;100.00;101456.84;4971988;28;20097;-75
2022/10/02 09:25:28;;;;;;;20.25;3.08;;;;;;;14.29;100.00;101465.78;4981742;28;20051;-77
2022/10/02 09:28:21;;;;;;;13.80;3.35;;;;;;;14.35;100.00;101460.72;4997462;28;20033;-76
2022/10/02 09:30:57;;;;;;;13.10;2.75;;;;;;;14.58;100.00;101460.09;4996529;28;20031;-75
2022/10/02 09:33:38;;;;;;;11.95;2.72;;;;;;;14.71;100.00;101456.94;4966819;28;20046;-74
2022/10/02 09:36:25;;;;;;;16.30;2.30;;;;;;;14.72;100.00;101458.56;4988696;28;20042;-75
2022/10/02 09:39:28;;;;;;;14.80;2.20;;;;;;;14.65;100.00;101455.81;4984533;28;20116;-75
2022/10/02 09:42:18;;;;;;;12.13;2.20;;;;;;;14.69;100.00;101458.91;4989077;28;20466;-75
2022/10/02 09:45:17;;;;;;;8.88;1.88;;;;;;;14.66;100.00;101460.06;4988466;28;20041;-75
2022/10/02 09:48:30;;;;;;;10.00;2.67;;;;;;;14.81;100.00;101459.38;4968977;28;20030;-75
2022/10/02 09:51:25;;;;;;;10.40;2.53;;;;;;;14.79;100.00;101464.75;4988831;28;20038;-75
2022/10/02 09:54:14;;;;;;;8.35;2.17;;;;;;;14.74;100.00;101473.06;4999396;28;20058;-75
2022/10/02 09:57:01;;;;;;;10.32;2.22;;;;;;;14.88;100.00;101475.97;4975958;28;20101;-75
2022/10/02 09:59:48;;;;;;;9.50;2.30;;;;;;;14.87;100.00;101483.00;4989209;28;20040;-76
2022/10/02 10:02:16;;;;;;;12.80;1.90;;;;;;;14.88;100.00;101478.59;4974123;28;20128;-75
2022/10/02 10:04:57;;;;;;;11.35;1.75;;;;;;;14.81;100.00;101488.91;4981823;28;20039;-75
2022/10/02 10:07:41;;;;;;;11.10;2.10;;;;;;;14.72;100.00;101485.47;4996946;28;20042;-75
2022/10/02 10:10:45;;;;;;;13.10;2.40;;;;;;;14.86;100.00;101476.16;4971995;28;20069;-75
2022/10/02 10:14:02;;;;;;;7.68;1.88;;;;;;;14.98;100.00;101489.66;4969893;28;20069;-75
2022/10/02 10:17:23;;;;;;;14.30;2.92;;;;;;;14.99;100.00;101491.28;4999345;28;20030;-76
2022/10/02 10:20:13;;;;;;;7.82;1.88;;;;;;;15.27;100.00;101489.06;4907666;29;20508;-77
2022/10/02 10:22:50;;;;;;;16.40;2.88;;;;;;;15.40;100.00;101487.69;4982673;28;20046;-79
2022/10/02 10:25:19;;;;;;;10.82;2.40;;;;;;;15.55;100.00;101491.22;4965708;28;20041;-76
2022/10/02 10:28:22;;;;;;;9.23;2.40;;;;;;;15.65;100.00;101483.97;4987441;28;20038;-76
2022/10/02 10:30:48;;;;;;;11.13;2.97;;;;;;;15.58;98.53;101485.66;5004249;28;20061;-77
2022/10/02 10:33:52;;;;;;;12.25;2.53;;;;;;;15.56;99.14;101485.00;5010572;28;20113;-77
2022/10/02 10:39:41;;;;;;;;;;;;;;;15.33;100.00;101504.06;4987543;28;20040;-79
2022/10/02 10:43:08;;;;;;;13.40;2.35;;;;;;;15.27;98.92;101507.34;4993400;28;19929;-78
2022/10/02 10:45:52;;;;;;;14.02;2.38;;;;;;;15.19;100.00;101516.03;4963265;28;20037;-77
2022/10/02 10:48:44;;;;;;;10.10;2.95;;;;;;;15.16;100.00;101520.78;4980072;28;20163;-77
2022/10/02 10:51:33;;;;;;;10.10;3.15;;;;;;;15.21;100.00;101518.47;4978836;28;20033;-78
2022/10/02 10:54:47;;;;;;;12.30;2.40;;;;;;;15.22;100.00;101525.34;4998364;28;20034;-77
2022/10/02 10:57:40;;;;;;;13.63;2.53;;;;;;;15.28;99.15;101522.03;4947482;28;20102;-78
2022/10/02 11:00:44;;;;;;;13.73;3.28;;;;;;;15.48;98.16;101524.25;5001879;28;20045;-79
2022/10/02 11:03:37;;;;;;;16.45;3.60;;;;;;;15.64;96.59;101523.34;4999442;28;20041;-83
2022/10/02 11:06:24;;;;;;;10.73;2.90;;;;;;;15.81;96.96;101518.88;4980781;28;20034;-79
2022/10/02 11:09:30;;;;;;;18.30;2.80;;;;;;;15.94;95.93;101522.53;5000998;28;20065;-81
2022/10/02 11:12:37;;;;;;;10.63;2.08;;;;;;;15.74;93.24;101537.03;4978990;28;20050;-81
2022/10/02 11:15:21;;;;;;;12.77;2.70;;;;;;;15.74;94.59;101530.00;4983707;28;20034;-80
2022/10/02 11:18:08;;;;;;;15.52;2.80;;;;;;;15.81;94.75;101524.91;4984722;28;20148;-81
2022/10/02 11:21:12;;;;;;;11.90;2.80;;;;;;;15.84;96.07;101528.97;4984008;28;20026;-79
2022/10/02 11:23:52;;;;;;;13.73;3.00;;;;;;;15.79;93.93;101536.53;4985228;28;20033;-79
2022/10/02 11:26:36;;;;;;;12.73;2.50;;;;;;;15.85;93.38;101541.88;5006308;28;20034;-81
2022/10/02 11:29:37;;;;;;;13.40;2.58;;;;;;;15.73;91.58;101538.03;4979101;28;20058;-78
2022/10/02 11:32:15;;;;;;;8.57;2.30;;;;;;;15.68;93.45;101535.09;4977870;28;20149;-80
2022/10/02 11:35:14;;;;;;;11.48;2.67;;;;;;;15.62;95.35;101547.06;4982730;28;20041;-81
2022/10/02 11:38:22;;;;;;;7.63;2.25;;;;;;;15.72;95.89;101546.84;4964975;28;21443;-80
2022/10/02 11:41:20;;;;;;;15.35;3.42;;;;;;;15.67;96.29;101546.53;4948437;28;20039;-79
2022/10/02 11:43:58;;;;;;;10.55;3.85;;;;;;;15.74;95.09;101545.69;4984979;28;20609;-80
2022/10/02 11:46:53;;;;;;;10.30;2.65;;;;;;;15.70;94.72;101544.38;4992191;28;21032;-80
2022/10/02 11:50:00;;;;;;;10.85;3.05;;;;;;;15.94;95.32;101545.28;5012540;28;20037;-80
2022/10/02 11:52:35;;;;;;;12.05;2.92;;;;;;;15.93;95.04;101539.22;4990979;28;20144;-80
2022/10/02 11:55:21;;;;;;;23.55;9.90;;;;;;;16.07;93.44;101549.94;4980171;28;20025;-79
2022/10/02 11:58:10;;;;;;;15.02;3.92;;;;;;;16.15;92.13;101555.09;4985369;28;20031;-81
2022/10/02 12:01:04;;;;;;;15.40;4.60;;;;;;;16.23;90.12;101551.59;4980752;28;22406;-79
2022/10/02 12:03:49;;;;;;;14.85;3.90;;;;;;;16.28;88.99;101557.13;5009692;28;20063;-80
2022/10/02 12:06:47;;;;;;;11.93;3.10;;;;;;;16.43;88.04;101560.63;4994185;28;20076;-82
2022/10/02 12:09:36;;;;;;;8.77;3.65;;;;;;;16.20;88.04;101558.03;4999272;28;20040;-81
2022/10/02 12:12:39;;;;;;;10.38;3.67;;;;;;;16.28;84.55;101550.09;5003385;28;20041;-82
2022/10/02 12:15:34;;;;;;;15.00;3.50;;;;;;;16.26;84.26;101546.03;5014047;28;20038;-83
2022/10/02 12:18:19;;;;;;;13.80;3.33;;;;;;;16.25;83.93;101545.19;4998579;28;20034;-81
2022/10/02 12:27:14;;;;;;;14.40;3.92;;;;;;;16.55;83.69;101540.06;5010011;28;20103;-82
2022/10/02 12:29:39;;;;;;;11.73;4.13;;;;;;;16.65;79.93;101534.56;4998539;28;20033;-81
2022/10/02 12:32:17;;;;;;;19.55;2.95;;;;;;;16.80;77.59;101538.03;4976671;28;20098;-81